createdAt,value
2019-03-13T00:02:22.038Z,9.46
2019-03-13T00:04:51.235Z,9.36
2019-03-13T00:07:20.538Z,9.30
2019-03-13T00:09:49.707Z,9.20
2019-03-13T00:12:20.709Z,9.14
2019-03-13T00:14:50.042Z,9.01
2019-03-13T00:17:19.267Z,8.83
2019-03-13T00:19:48.935Z,8.79
2019-03-13T00:22:18.125Z,8.71
2019-03-13T00:24:47.295Z,8.61
2019-03-13T00:27:16.312Z,8.51
2019-03-13T00:29:45.405Z,8.42
2019-03-13T00:32:14.793Z,8.45
2019-03-13T00:34:43.866Z,8.34
2019-03-13T00:37:13.185Z,8.30
2019-03-13T00:39:42.814Z,8.21
2019-03-13T00:42:11.874Z,8.13
2019-03-13T00:44:41.134Z,8.04
2019-03-13T00:47:10.212Z,7.90
2019-03-13T00:49:39.240Z,7.87
2019-03-13T00:52:08.510Z,7.93
2019-03-13T00:54:37.600Z,7.83
2019-03-13T00:57:07.110Z,7.82
2019-03-13T00:59:36.182Z,7.86
2019-03-13T01:02:23.179Z,7.85
2019-03-13T01:05:05.861Z,7.80
2019-03-13T01:07:35.009Z,7.71
2019-03-13T01:10:04.443Z,7.77
2019-03-13T01:12:33.577Z,7.76
2019-03-13T01:15:02.809Z,7.75
2019-03-13T01:17:31.866Z,7.74
2019-03-13T01:20:01.146Z,7.70
2019-03-13T01:22:30.245Z,7.72
2019-03-13T01:24:59.552Z,7.71
2019-03-13T01:27:28.907Z,7.69
2019-03-13T01:29:58.010Z,7.62
2019-03-13T01:32:42.008Z,7.65
2019-03-13T01:35:30.043Z,7.61
2019-03-13T01:37:59.081Z,7.58
2019-03-13T01:40:28.325Z,7.45
2019-03-13T01:42:57.375Z,7.36
2019-03-13T01:45:28.359Z,7.35
2019-03-13T01:47:57.618Z,7.36
2019-03-13T01:50:26.870Z,7.28
2019-03-13T01:52:56.085Z,7.27
2019-03-13T01:55:25.446Z,7.24
2019-03-13T01:57:54.503Z,7.20
2019-03-13T02:00:23.909Z,7.12
2019-03-13T02:02:52.971Z,7.06
2019-03-13T02:05:22.224Z,7.11
2019-03-13T02:07:51.491Z,7.16
2019-03-13T02:10:20.582Z,7.24
2019-03-13T02:12:49.900Z,7.26
2019-03-13T02:15:20.034Z,7.26
2019-03-13T02:17:49.359Z,7.27
2019-03-13T02:20:18.693Z,7.32
2019-03-13T02:22:47.747Z,7.28
2019-03-13T02:25:17.982Z,7.24
2019-03-13T02:27:47.183Z,7.33
2019-03-13T02:30:16.610Z,7.19
2019-03-13T02:32:45.633Z,7.22
2019-03-13T02:35:15.006Z,7.13
2019-03-13T02:37:44.056Z,7.07
2019-03-13T02:40:13.326Z,7.04
2019-03-13T02:42:42.425Z,7.00
2019-03-13T02:45:12.006Z,6.91
2019-03-13T02:47:41.142Z,6.88
2019-03-13T02:50:11.107Z,6.89
2019-03-13T02:52:40.565Z,6.79
2019-03-13T02:55:09.765Z,6.80
2019-03-13T02:57:38.793Z,6.74
2019-03-13T03:00:10.492Z,6.76
2019-03-13T03:02:43.390Z,6.79
2019-03-13T03:05:12.452Z,6.84
2019-03-13T03:07:41.562Z,6.75
2019-03-13T03:10:11.633Z,6.87
2019-03-13T03:12:40.997Z,6.88
2019-03-13T03:15:12.445Z,6.85
2019-03-13T03:17:41.617Z,6.86
2019-03-13T03:20:13.617Z,6.83
2019-03-13T03:22:42.704Z,6.83
2019-03-13T03:25:12.642Z,6.90
2019-03-13T03:27:41.691Z,6.89
2019-03-13T03:30:14.308Z,6.91
2019-03-13T03:32:43.724Z,6.88
2019-03-13T03:35:12.945Z,6.92
2019-03-13T03:37:42.099Z,6.90
2019-03-13T03:40:12.715Z,6.93
2019-03-13T03:42:41.765Z,6.95
2019-03-13T03:45:10.860Z,6.96
2019-03-13T03:47:40.102Z,6.96
2019-03-13T03:50:11.000Z,6.99
2019-03-13T03:52:40.178Z,7.02
2019-03-13T03:55:09.655Z,7.13
2019-03-13T03:57:38.678Z,7.04
2019-03-13T04:00:08.383Z,6.98
2019-03-13T04:02:37.439Z,7.00
2019-03-13T04:05:06.830Z,6.89
2019-03-13T04:07:35.993Z,6.74
2019-03-13T04:10:05.253Z,6.67
2019-03-13T04:12:34.301Z,6.52
2019-03-13T04:15:03.405Z,6.34
2019-03-13T04:17:32.554Z,6.29
2019-03-13T04:20:01.635Z,6.37
2019-03-13T04:22:30.821Z,6.40
2019-03-13T04:25:12.679Z,6.48
2019-03-13T04:27:42.040Z,6.52
2019-03-13T04:30:11.516Z,6.54
2019-03-13T04:32:40.576Z,6.58
2019-03-13T04:35:09.751Z,6.53
2019-03-13T04:37:39.016Z,6.61
2019-03-13T04:40:08.708Z,6.57
2019-03-13T04:42:37.789Z,6.55
2019-03-13T04:45:06.999Z,6.50
2019-03-13T04:47:36.019Z,6.69
2019-03-13T04:50:05.141Z,6.62
2019-03-13T04:52:34.198Z,6.72
2019-03-13T04:55:03.466Z,6.71
2019-03-13T04:57:32.649Z,6.74
2019-03-13T05:00:02.094Z,6.75
2019-03-13T05:02:31.128Z,6.76
2019-03-13T05:05:00.420Z,6.80
2019-03-13T05:07:29.584Z,6.76
2019-03-13T05:09:58.764Z,6.74
2019-03-13T05:12:28.025Z,6.73
2019-03-13T05:14:57.227Z,6.85
2019-03-13T05:17:26.361Z,6.84
2019-03-13T05:19:55.785Z,6.80
2019-03-13T05:22:24.917Z,6.77
2019-03-13T05:24:54.406Z,6.80
2019-03-13T05:27:23.426Z,6.89
2019-03-13T05:29:52.486Z,6.85
2019-03-13T05:32:21.854Z,6.86
2019-03-13T05:34:50.948Z,6.87
2019-03-13T05:37:20.398Z,6.90
2019-03-13T05:39:49.465Z,6.94
2019-03-13T05:42:18.564Z,6.89
2019-03-13T05:44:47.923Z,6.81
2019-03-13T05:47:17.012Z,6.85
2019-03-13T05:49:46.434Z,6.88
2019-03-13T05:52:15.489Z,6.81
2019-03-13T05:54:44.723Z,6.80
2019-03-13T05:57:14.213Z,6.86
2019-03-13T05:59:43.488Z,6.87
2019-03-13T06:02:12.563Z,6.81
2019-03-13T06:04:41.733Z,6.75
2019-03-13T06:07:10.964Z,6.88
2019-03-13T06:09:40.206Z,6.83
2019-03-13T06:12:09.434Z,6.77
2019-03-13T06:14:38.676Z,6.79
2019-03-13T06:17:07.946Z,6.84
2019-03-13T06:19:37.004Z,6.70
2019-03-13T06:22:06.188Z,6.73
2019-03-13T06:24:36.082Z,6.76
2019-03-13T06:27:05.462Z,6.74
2019-03-13T06:29:34.751Z,6.69
2019-03-13T06:32:04.154Z,6.66
2019-03-13T06:34:33.211Z,6.67
2019-03-13T06:37:02.573Z,6.89
2019-03-13T06:39:32.191Z,7.05
2019-03-13T06:42:01.303Z,6.83
2019-03-13T06:44:30.300Z,6.86
2019-03-13T06:46:59.640Z,6.88
2019-03-13T06:49:28.659Z,6.97
2019-03-13T06:51:57.854Z,6.92
2019-03-13T06:54:26.987Z,7.09
2019-03-13T06:56:56.392Z,7.04
2019-03-13T06:59:32.722Z,6.96
2019-03-13T07:02:14.311Z,6.94
2019-03-13T07:05:01.186Z,6.95
2019-03-13T07:07:52.087Z,6.80
2019-03-13T07:10:46.283Z,6.79
2019-03-13T07:13:24.659Z,6.81
2019-03-13T07:16:11.621Z,6.90
2019-03-13T07:18:58.198Z,6.92
2019-03-13T07:21:48.980Z,6.99
2019-03-13T07:24:39.969Z,7.05
2019-03-13T07:27:34.107Z,7.10
2019-03-13T07:30:12.332Z,7.22
2019-03-13T07:32:50.371Z,7.27
2019-03-13T07:35:50.722Z,7.28
2019-03-13T07:38:47.762Z,7.36
2019-03-13T07:41:37.333Z,7.36
2019-03-13T07:44:28.295Z,7.36
2019-03-13T07:47:13.412Z,7.41
2019-03-13T07:50:10.462Z,7.38
2019-03-13T07:53:04.505Z,7.40
2019-03-13T07:55:52.619Z,7.63
2019-03-13T07:58:30.714Z,7.67
2019-03-13T08:01:31.283Z,7.80
2019-03-13T08:04:25.730Z,7.85
2019-03-13T08:07:18.299Z,7.90
2019-03-13T08:09:54.474Z,8.15
2019-03-13T08:12:49.962Z,8.42
2019-03-13T08:15:29.094Z,8.85
2019-03-13T08:18:35.508Z,9.21
2019-03-13T08:21:38.794Z,9.15
2019-03-13T08:24:23.696Z,8.95
2019-03-13T08:27:09.165Z,8.77
2019-03-13T08:29:55.399Z,8.40
2019-03-13T08:32:58.998Z,8.43
2019-03-13T08:35:45.522Z,8.82
2019-03-13T08:38:37.697Z,9.31
2019-03-13T08:41:15.669Z,9.71
2019-03-13T08:44:10.627Z,10.25
2019-03-13T08:46:46.978Z,10.34
2019-03-13T08:49:37.933Z,10.06
2019-03-13T08:52:22.549Z,9.94
2019-03-13T08:55:15.432Z,9.93
2019-03-13T08:58:19.052Z,9.65
2019-03-13T09:01:06.169Z,9.53
2019-03-13T09:03:44.841Z,9.35
2019-03-13T09:06:27.052Z,9.05
2019-03-13T09:09:15.767Z,9.13
2019-03-13T09:11:54.380Z,9.12
2019-03-13T09:14:41.431Z,8.93
2019-03-13T09:17:26.067Z,8.92
2019-03-13T09:20:14.058Z,8.76
2019-03-13T09:22:49.672Z,8.64
2019-03-13T09:25:46.299Z,8.85
2019-03-13T09:28:38.805Z,8.69
2019-03-13T09:31:25.792Z,8.72
2019-03-13T09:34:10.415Z,8.66
2019-03-13T09:37:04.466Z,8.74
2019-03-13T09:39:52.580Z,8.82
2019-03-13T09:42:40.840Z,8.85
2019-03-13T09:45:26.287Z,8.81
2019-03-13T09:48:23.015Z,8.83
2019-03-13T09:51:08.923Z,8.91
2019-03-13T09:53:46.611Z,8.97
2019-03-13T09:56:33.443Z,9.02
2019-03-13T09:59:20.073Z,8.96
2019-03-13T10:02:13.063Z,8.95
2019-03-13T10:05:00.008Z,9.00
2019-03-13T10:07:51.052Z,9.03
2019-03-13T10:10:38.648Z,8.94
2019-03-13T10:13:26.923Z,8.89
2019-03-13T10:16:14.947Z,8.85
2019-03-13T10:18:52.557Z,8.85
2019-03-13T10:21:41.249Z,8.83
2019-03-13T10:24:32.284Z,8.81
2019-03-13T10:27:19.086Z,8.70
2019-03-13T10:30:13.321Z,8.74
2019-03-13T10:33:01.615Z,8.78
2019-03-13T10:35:40.160Z,8.81
2019-03-13T10:38:27.075Z,8.89
2019-03-13T10:41:21.393Z,9.09
2019-03-13T10:44:14.305Z,9.31
2019-03-13T10:47:00.903Z,9.70
2019-03-13T10:49:48.907Z,10.05
2019-03-13T10:52:36.975Z,10.20
2019-03-13T10:55:16.290Z,10.05
2019-03-13T10:58:07.540Z,9.98
2019-03-13T11:00:45.661Z,9.92
2019-03-13T11:03:36.869Z,9.75
2019-03-13T11:06:29.172Z,9.59
2019-03-13T11:09:17.025Z,9.64
2019-03-13T11:12:00.649Z,9.54
2019-03-13T11:14:57.969Z,9.60
2019-03-13T11:17:39.115Z,9.72
2019-03-13T11:20:15.461Z,9.91
2019-03-13T11:23:02.495Z,10.01
2019-03-13T11:25:43.524Z,9.89
2019-03-13T11:28:34.738Z,9.82
2019-03-13T11:31:28.753Z,9.76
2019-03-13T11:34:07.011Z,9.71
2019-03-13T11:37:07.620Z,9.16
2019-03-13T11:39:44.664Z,9.47
2019-03-13T11:42:27.896Z,9.59
2019-03-13T11:45:08.456Z,9.84
2019-03-13T11:47:55.319Z,10.21
2019-03-13T11:50:46.384Z,10.69
2019-03-13T11:53:29.836Z,10.48
2019-03-13T11:56:16.878Z,10.26
2019-03-13T11:58:52.480Z,9.81
2019-03-13T12:01:49.698Z,9.39
2019-03-13T12:04:37.703Z,9.61
2019-03-13T12:07:28.598Z,10.01
2019-03-13T12:10:10.409Z,9.92
2019-03-13T12:13:13.650Z,9.79
2019-03-13T12:16:11.245Z,10.17
2019-03-13T12:19:05.301Z,10.55
2019-03-13T12:21:59.532Z,10.41
2019-03-13T12:24:45.216Z,10.76
2019-03-13T12:27:36.501Z,10.94
2019-03-13T12:30:29.017Z,10.81
2019-03-13T12:33:26.272Z,10.77
2019-03-13T12:36:13.142Z,10.81
2019-03-13T12:39:07.208Z,10.72
2019-03-13T12:41:55.677Z,10.78
2019-03-13T12:44:31.116Z,11.01
2019-03-13T12:47:18.030Z,11.14
2019-03-13T12:50:04.283Z,10.82
2019-03-13T12:52:51.107Z,10.54
2019-03-13T12:55:48.119Z,10.44
2019-03-13T12:58:35.213Z,10.47
2019-03-13T13:01:18.965Z,10.61
2019-03-13T13:03:55.614Z,10.37
2019-03-13T13:06:33.844Z,10.34
2019-03-13T13:09:19.396Z,10.30
2019-03-13T13:12:07.655Z,10.25
2019-03-13T13:14:53.364Z,10.17
2019-03-13T13:17:44.981Z,10.22
2019-03-13T13:20:14.028Z,10.24
2019-03-13T13:22:43.219Z,10.29
2019-03-13T13:25:12.451Z,10.56
2019-03-13T13:27:41.577Z,10.55
2019-03-13T13:30:11.904Z,10.23
2019-03-13T13:32:41.138Z,10.15
2019-03-13T13:35:10.416Z,10.00
2019-03-13T13:37:39.435Z,10.17
2019-03-13T13:40:09.136Z,10.00
2019-03-13T13:42:38.208Z,10.05
2019-03-13T13:45:08.143Z,9.83
2019-03-13T13:47:37.376Z,9.67
2019-03-13T13:50:07.939Z,9.67
2019-03-13T13:52:37.098Z,9.84
2019-03-13T13:55:06.179Z,10.02
2019-03-13T13:57:35.193Z,10.01
2019-03-13T14:00:04.822Z,10.07
2019-03-13T14:02:33.962Z,10.01
2019-03-13T14:05:03.011Z,9.91
2019-03-13T14:07:33.089Z,9.80
2019-03-13T14:10:02.386Z,9.77
2019-03-13T14:12:31.413Z,9.56
2019-03-13T14:15:00.790Z,9.41
2019-03-13T14:17:30.033Z,9.43
2019-03-13T14:19:59.129Z,9.50
2019-03-13T14:22:28.392Z,9.53
2019-03-13T14:24:57.641Z,9.53
2019-03-13T14:27:26.850Z,9.51
2019-03-13T14:29:56.128Z,9.50
2019-03-13T14:32:25.259Z,9.44
2019-03-13T14:34:54.602Z,9.50
2019-03-13T14:37:23.786Z,9.47
2019-03-13T14:39:52.888Z,9.51
2019-03-13T14:42:22.122Z,9.57
2019-03-13T14:44:51.497Z,9.55
2019-03-13T14:47:20.569Z,9.61
2019-03-13T14:49:49.851Z,9.64
2019-03-13T14:52:19.133Z,9.67
2019-03-13T14:54:48.351Z,9.56
2019-03-13T14:57:17.458Z,9.59
2019-03-13T14:59:46.803Z,9.62
2019-03-13T15:02:16.002Z,9.68
2019-03-13T15:04:45.172Z,9.77
2019-03-13T15:07:14.433Z,9.81
2019-03-13T15:09:43.666Z,9.87
2019-03-13T15:12:13.004Z,9.82
2019-03-13T15:14:42.071Z,9.85
2019-03-13T15:17:11.292Z,10.05
2019-03-13T15:19:40.719Z,10.16
2019-03-13T15:22:09.779Z,10.15
2019-03-13T15:24:38.866Z,10.16
2019-03-13T15:27:08.065Z,9.98
2019-03-13T15:29:37.452Z,9.87
2019-03-13T15:32:06.764Z,9.95
2019-03-13T15:34:35.859Z,9.90
2019-03-13T15:37:05.215Z,9.97
2019-03-13T15:39:34.256Z,10.03
2019-03-13T15:42:03.473Z,10.08
2019-03-13T15:44:32.741Z,10.09
2019-03-13T15:47:01.939Z,10.08
2019-03-13T15:49:31.171Z,10.04
2019-03-13T15:52:00.383Z,10.07
2019-03-13T15:54:29.590Z,10.02
2019-03-13T15:56:58.837Z,10.06
2019-03-13T15:59:28.038Z,10.04
2019-03-13T16:01:57.338Z,10.09
2019-03-13T16:04:26.617Z,10.10
2019-03-13T16:06:56.340Z,10.16
2019-03-13T16:09:26.001Z,10.07
2019-03-13T16:11:55.233Z,9.90
2019-03-13T16:14:24.418Z,9.87
2019-03-13T16:16:53.513Z,9.85
2019-03-13T16:19:22.833Z,9.83
2019-03-13T16:21:51.986Z,9.79
2019-03-13T16:24:21.814Z,9.76
2019-03-13T16:26:51.014Z,9.69
2019-03-13T16:29:23.283Z,9.59
2019-03-13T16:31:53.806Z,9.57
2019-03-13T16:34:23.234Z,9.51
2019-03-13T16:36:52.267Z,9.53
2019-03-13T16:39:21.588Z,9.50
2019-03-13T16:41:50.644Z,9.50
2019-03-13T16:44:19.883Z,9.42
2019-03-13T16:46:49.253Z,9.43
2019-03-13T16:49:18.570Z,9.38
2019-03-13T16:51:47.626Z,9.41
2019-03-13T16:54:16.777Z,9.44
2019-03-13T16:56:46.023Z,9.33
2019-03-13T16:59:15.372Z,9.26
2019-03-13T17:01:44.505Z,9.30
2019-03-13T17:04:13.904Z,9.30
2019-03-13T17:06:42.991Z,9.28
2019-03-13T17:09:12.095Z,9.24
2019-03-13T17:11:41.554Z,9.15
2019-03-13T17:14:10.751Z,9.10
2019-03-13T17:16:39.807Z,9.10
2019-03-13T17:19:08.973Z,9.17
2019-03-13T17:21:38.195Z,9.20
2019-03-13T17:24:07.425Z,9.18
2019-03-13T17:26:36.609Z,9.26
2019-03-13T17:29:05.830Z,9.19
2019-03-13T17:31:35.101Z,9.21
2019-03-13T17:34:06.012Z,9.45
2019-03-13T17:36:35.052Z,9.43
2019-03-13T17:39:05.751Z,9.44
2019-03-13T17:41:34.987Z,9.42
2019-03-13T17:44:04.088Z,9.36
2019-03-13T17:46:33.374Z,9.45
2019-03-13T17:49:02.607Z,9.28
2019-03-13T17:51:31.835Z,9.14
2019-03-13T17:54:00.931Z,9.04
2019-03-13T17:56:30.170Z,9.04
2019-03-13T17:58:59.533Z,8.94
2019-03-13T18:01:28.634Z,8.93
2019-03-13T18:03:57.972Z,8.76
2019-03-13T18:06:27.083Z,8.73
2019-03-13T18:08:56.447Z,8.78
2019-03-13T18:11:25.553Z,8.69
2019-03-13T18:13:54.783Z,8.64
2019-03-13T18:16:24.157Z,8.67
2019-03-13T18:18:53.235Z,8.56
2019-03-13T18:21:22.618Z,8.56
2019-03-13T18:23:51.790Z,8.53
2019-03-13T18:26:20.894Z,8.35
2019-03-13T18:28:50.083Z,8.28
2019-03-13T18:31:19.313Z,8.17
2019-03-13T18:33:48.521Z,8.02
2019-03-13T18:36:17.788Z,7.96
2019-03-13T18:38:46.871Z,7.88
2019-03-13T18:41:16.327Z,7.87
2019-03-13T18:43:45.692Z,7.82
2019-03-13T18:46:14.797Z,7.80
2019-03-13T18:48:44.035Z,7.81
2019-03-13T18:51:13.599Z,7.82
2019-03-13T18:53:42.815Z,7.80
2019-03-13T18:56:11.885Z,7.79
2019-03-13T18:58:40.945Z,7.78
2019-03-13T19:01:10.187Z,7.77
2019-03-13T19:03:39.242Z,7.76
2019-03-13T19:06:08.346Z,7.72
2019-03-13T19:08:37.701Z,7.75
2019-03-13T19:11:07.117Z,7.72
2019-03-13T19:13:36.153Z,7.73
2019-03-13T19:16:05.299Z,7.74
2019-03-13T19:18:34.442Z,7.75
2019-03-13T19:21:03.861Z,7.79
2019-03-13T19:23:32.951Z,7.75
2019-03-13T19:26:02.383Z,7.76
2019-03-13T19:28:31.429Z,7.75
2019-03-13T19:31:00.671Z,7.77
2019-03-13T19:33:30.060Z,7.76
2019-03-13T19:35:59.147Z,7.77
2019-03-13T19:38:28.323Z,7.78
2019-03-13T19:40:57.416Z,7.81
2019-03-13T19:43:26.841Z,7.86
2019-03-13T19:45:56.030Z,7.95
2019-03-13T19:48:25.263Z,8.00
2019-03-13T19:50:56.597Z,7.96
2019-03-13T19:53:25.719Z,7.98
2019-03-13T19:55:54.895Z,7.89
2019-03-13T19:58:24.236Z,7.95
2019-03-13T20:00:53.374Z,7.94
2019-03-13T20:03:22.502Z,7.91
2019-03-13T20:05:51.775Z,7.96
2019-03-13T20:08:21.010Z,7.97
2019-03-13T20:10:50.193Z,7.93
2019-03-13T20:13:19.510Z,7.86
2019-03-13T20:15:48.990Z,7.85
2019-03-13T20:18:18.072Z,7.84
2019-03-13T20:20:47.164Z,7.89
2019-03-13T20:23:16.300Z,7.75
2019-03-13T20:25:45.408Z,7.71
2019-03-13T20:28:14.616Z,7.68
2019-03-13T20:30:44.200Z,7.58
2019-03-13T20:33:13.276Z,7.47
2019-03-13T20:35:42.559Z,7.27
2019-03-13T20:38:11.614Z,7.19
2019-03-13T20:40:40.998Z,7.08
2019-03-13T20:43:10.067Z,7.03
2019-03-13T20:45:41.581Z,6.97
2019-03-13T20:48:11.489Z,6.93
2019-03-13T20:50:40.926Z,6.77
2019-03-13T20:53:09.971Z,6.79
2019-03-13T20:55:39.068Z,6.68
2019-03-13T20:58:08.442Z,6.70
2019-03-13T21:00:37.542Z,6.66
2019-03-13T21:03:06.859Z,6.65
2019-03-13T21:05:35.970Z,6.65
2019-03-13T21:08:05.275Z,6.60
2019-03-13T21:10:34.521Z,6.62
2019-03-13T21:13:03.838Z,6.57
2019-03-13T21:15:33.953Z,6.58
2019-03-13T21:18:03.047Z,6.55
2019-03-13T21:20:32.387Z,6.59
2019-03-13T21:23:01.444Z,6.57
2019-03-13T21:25:31.012Z,6.53
2019-03-13T21:28:00.052Z,6.58
2019-03-13T21:30:29.743Z,6.57
2019-03-13T21:32:58.872Z,6.61
2019-03-13T21:35:28.019Z,6.53
2019-03-13T21:37:57.134Z,6.52
2019-03-13T21:40:26.406Z,6.55
2019-03-13T21:42:55.819Z,6.53
2019-03-13T21:45:24.992Z,6.49
2019-03-13T21:47:58.985Z,6.48
2019-03-13T21:50:28.178Z,6.49
2019-03-13T21:52:57.445Z,6.37
2019-03-13T21:55:27.530Z,6.39
2019-03-13T21:57:56.935Z,6.45
2019-03-13T22:00:26.090Z,6.43
2019-03-13T22:02:55.445Z,6.45
2019-03-13T22:05:27.226Z,6.38
2019-03-13T22:07:55.302Z,6.39
2019-03-13T22:10:24.524Z,6.40
2019-03-13T22:12:53.800Z,6.42
2019-03-13T22:15:22.984Z,6.48
2019-03-13T22:17:52.117Z,6.41
2019-03-13T22:20:21.307Z,6.46
2019-03-13T22:22:53.428Z,6.50
2019-03-13T22:25:22.779Z,6.47
2019-03-13T22:27:52.113Z,6.49
2019-03-13T22:30:21.731Z,6.47
2019-03-13T22:32:50.986Z,6.45
2019-03-13T22:35:19.994Z,6.47
2019-03-13T22:37:49.159Z,6.42
2019-03-13T22:40:19.204Z,6.44
2019-03-13T22:42:48.438Z,6.43
2019-03-13T22:45:18.081Z,6.48
2019-03-13T22:47:47.225Z,6.47
2019-03-13T22:50:17.499Z,6.48
2019-03-13T22:52:46.540Z,6.44
2019-03-13T22:55:15.718Z,6.48
2019-03-13T22:57:45.157Z,6.51
2019-03-13T23:00:47.343Z,6.49
2019-03-13T23:03:16.849Z,6.47
2019-03-13T23:05:45.964Z,6.47
2019-03-13T23:08:15.019Z,6.43
2019-03-13T23:10:44.050Z,6.42
2019-03-13T23:13:13.245Z,6.40
2019-03-13T23:15:42.308Z,6.45
2019-03-13T23:18:11.557Z,6.41
2019-03-13T23:20:40.823Z,6.49
2019-03-13T23:23:09.969Z,6.44
2019-03-13T23:25:39.218Z,6.39
2019-03-13T23:28:08.396Z,6.37
2019-03-13T23:30:37.907Z,6.32
2019-03-13T23:33:06.921Z,6.31
2019-03-13T23:35:36.084Z,6.22
2019-03-13T23:38:05.543Z,6.22
2019-03-13T23:40:34.622Z,6.22
2019-03-13T23:43:03.737Z,6.16
2019-03-13T23:45:32.996Z,6.19
2019-03-13T23:48:02.310Z,6.10
2019-03-13T23:50:31.457Z,6.07
2019-03-13T23:53:00.572Z,6.11
2019-03-13T23:55:29.664Z,6.19
2019-03-13T23:57:58.762Z,6.12
